Time;durP1;ratioP1;P1;durP2;ratioP2;P2;SDS_P1;SDS_P2;PMS_P1;PMS_P2;Temp;Humidity;BMP_temperature;BMP_pressure;BME280_temperature;BME280_humidity;BME280_pressure;Samples;Min_cycle;Max_cycle;Signal;HPM_P1;HPM_P2
2022/01/17 00:02:09;;;;;;;54.88;27.85;;;26.80;99.90;;;;;;5033430;28;20148;-71
2022/01/17 00:04:35;;;;;;;41.55;27.25;;;26.90;99.90;;;;;;5033644;28;20029;-71
2022/01/17 00:07:02;;;;;;;40.58;27.08;;;26.90;99.90;;;;;;5033901;28;20103;-71
2022/01/17 00:09:29;;;;;;;48.78;26.35;;;26.90;99.90;;;;;;5033742;28;20021;-71
2022/01/17 00:11:56;;;;;;;54.42;26.98;;;26.90;99.90;;;;;;5035352;28;20076;-71
2022/01/17 00:14:28;;;;;;;53.30;29.30;;;26.90;99.90;;;;;;5033875;28;20053;-70
2022/01/17 00:17:08;;;;;;;48.42;28.25;;;26.90;99.90;;;;;;5035226;28;20021;-70
2022/01/17 00:19:40;;;;;;;56.03;28.63;;;27.00;99.90;;;;;;5032986;28;20057;-70
2022/01/17 00:22:07;;;;;;;45.03;26.58;;;27.00;99.90;;;;;;5033017;28;20025;-71
2022/01/17 00:24:35;;;;;;;52.25;28.35;;;27.10;99.90;;;;;;5033316;28;20095;-69
2022/01/17 00:27:01;;;;;;;46.63;28.30;;;27.10;99.90;;;;;;5033751;28;20032;-70
2022/01/17 00:29:29;;;;;;;51.58;30.25;;;27.10;99.90;;;;;;5033712;28;20060;-70
2022/01/17 00:31:56;;;;;;;53.45;28.80;;;27.20;99.90;;;;;;5033510;28;20357;-70
2022/01/17 00:34:23;;;;;;;57.42;29.05;;;27.30;99.90;;;;;;5033551;28;20025;-70
2022/01/17 00:36:50;;;;;;;48.88;27.35;;;27.30;99.90;;;;;;5033617;28;20071;-70
2022/01/17 00:39:17;;;;;;;60.63;31.58;;;27.30;99.90;;;;;;5033390;28;20100;-71
2022/01/17 00:41:44;;;;;;;56.80;30.85;;;27.40;99.90;;;;;;5033241;28;20025;-70
2022/01/17 00:44:11;;;;;;;50.05;28.30;;;27.40;99.90;;;;;;5033745;28;20483;-70
2022/01/17 00:46:38;;;;;;;51.00;30.35;;;27.50;99.90;;;;;;5033258;28;20033;-70
2022/01/17 00:49:05;;;;;;;69.78;41.85;;;27.40;99.90;;;;;;5033494;28;20458;-69
2022/01/17 00:51:32;;;;;;;52.83;29.95;;;27.40;99.90;;;;;;5033172;28;20029;-69
2022/01/17 00:53:59;;;;;;;57.55;32.35;;;27.50;99.90;;;;;;5033142;28;20029;-70
2022/01/17 00:56:25;;;;;;;57.67;33.33;;;27.50;99.90;;;;;;5032978;28;20026;-70
2022/01/17 00:58:52;;;;;;;65.93;36.67;;;27.50;99.90;;;;;;5033081;28;20091;-71
2022/01/17 01:01:19;;;;;;;63.97;39.05;;;27.50;99.90;;;;;;5032828;28;20029;-70
2022/01/17 01:03:46;;;;;;;69.00;39.50;;;27.60;99.90;;;;;;5032835;28;20455;-69
2022/01/17 01:06:15;;;;;;;68.38;42.15;;;27.60;99.90;;;;;;5033061;28;20064;-70
2022/01/17 01:08:42;;;;;;;77.53;40.20;;;27.70;99.90;;;;;;5032972;28;20036;-70
2022/01/17 01:11:08;;;;;;;73.20;38.22;;;27.70;99.90;;;;;;5032980;28;20032;-70
2022/01/17 01:13:36;;;;;;;60.65;35.95;;;27.80;99.90;;;;;;5032257;28;20018;-70
2022/01/17 01:16:24;;;;;;;70.25;38.17;;;27.80;99.90;;;;;;5032018;28;20029;-70
2022/01/17 01:19:08;;;;;;;65.75;37.55;;;27.90;99.90;;;;;;5030704;28;20029;-70
2022/01/17 01:29:31;;;;;;;98.10;60.92;;;28.00;99.90;;;;;;5031849;28;20480;-70
2022/01/17 01:32:06;;;;;;;82.72;42.00;;;28.00;99.90;;;;;;5031965;28;20022;-70
2022/01/17 01:34:37;;;;;;;108.45;64.72;;;28.10;99.90;;;;;;5034690;28;20096;-70
2022/01/17 01:37:05;;;;;;;204.93;139.57;;;28.10;99.90;;;;;;5035920;28;20018;-70
2022/01/17 01:39:33;;;;;;;141.13;86.90;;;28.10;99.90;;;;;;5035513;28;20025;-70
2022/01/17 01:42:00;;;;;;;148.35;100.40;;;28.10;99.90;;;;;;5035967;28;20018;-70
2022/01/17 01:44:28;;;;;;;80.97;49.58;;;28.10;99.90;;;;;;5035407;28;20033;-69
2022/01/17 01:46:57;;;;;;;77.45;42.30;;;28.10;99.90;;;;;;5035592;28;20033;-69
2022/01/17 01:49:25;;;;;;;71.95;41.72;;;28.10;99.90;;;;;;5035844;28;20033;-69
2022/01/17 01:51:52;;;;;;;80.90;51.20;;;28.20;99.90;;;;;;5035406;28;20026;-70
2022/01/17 01:54:19;;;;;;;102.47;57.38;;;28.20;99.90;;;;;;5035600;28;20022;-70
2022/01/17 01:56:48;;;;;;;107.80;63.92;;;28.20;99.90;;;;;;5035204;28;20028;-71
2022/01/17 01:59:19;;;;;;;84.63;42.97;;;28.20;99.90;;;;;;5035309;28;20041;-71
2022/01/17 02:01:47;;;;;;;239.57;186.70;;;28.20;99.90;;;;;;5035282;28;20028;-71
2022/01/17 02:04:15;;;;;;;104.25;58.05;;;28.20;99.90;;;;;;5035875;28;20375;-71
2022/01/17 02:06:42;;;;;;;69.45;44.13;;;28.20;99.90;;;;;;5035538;28;20060;-71
2022/01/17 02:09:09;;;;;;;71.18;42.30;;;28.30;99.90;;;;;;5036248;28;20479;-71
2022/01/17 02:11:36;;;;;;;79.55;47.10;;;28.30;99.90;;;;;;5036260;28;20021;-72
2022/01/17 02:14:04;;;;;;;115.20;65.72;;;28.40;99.90;;;;;;5035770;28;20101;-72
2022/01/17 02:16:33;;;;;;;72.40;43.55;;;28.40;99.90;;;;;;5035541;28;20079;-71
2022/01/17 02:19:00;;;;;;;73.90;43.40;;;28.40;99.90;;;;;;5037135;28;20022;-71
2022/01/17 02:21:45;;;;;;;63.78;38.30;;;28.40;99.90;;;;;;5035845;28;20028;-70
2022/01/17 02:24:16;;;;;;;78.25;43.70;;;28.40;99.90;;;;;;5036297;28;20487;-72
2022/01/17 02:26:44;;;;;;;123.55;78.20;;;28.50;99.90;;;;;;5035873;28;20043;-71
2022/01/17 02:29:10;;;;;;;135.68;79.22;;;28.50;99.90;;;;;;5035981;28;20379;-72
2022/01/17 02:31:39;;;;;;;55.90;33.58;;;28.50;99.90;;;;;;5035608;28;20025;-72
2022/01/17 02:34:06;;;;;;;70.82;45.30;;;28.60;99.90;;;;;;5035745;28;20030;-71
2022/01/17 02:36:33;;;;;;;64.57;33.45;;;28.60;99.90;;;;;;5035757;28;20025;-70
2022/01/17 02:39:02;;;;;;;152.48;93.78;;;28.70;99.90;;;;;;5035996;28;20029;-71
2022/01/17 02:41:30;;;;;;;74.20;43.40;;;28.90;99.90;;;;;;5035622;28;20049;-71
2022/01/17 02:44:00;;;;;;;99.18;59.88;;;28.90;99.90;;;;;;5035829;28;20032;-71
2022/01/17 02:46:27;;;;;;;68.65;39.35;;;28.90;99.90;;;;;;5033518;28;20030;-70
2022/01/17 02:48:56;;;;;;;60.28;36.35;;;28.90;99.90;;;;;;5035921;28;20017;-72
2022/01/17 02:51:23;;;;;;;53.28;31.95;;;28.90;99.90;;;;;;5035389;28;20542;-71
2022/01/17 02:53:51;;;;;;;66.82;37.92;;;29.00;99.90;;;;;;5035103;28;20025;-72
2022/01/17 02:56:18;;;;;;;63.97;37.30;;;29.00;99.90;;;;;;5035428;28;20025;-72
2022/01/17 02:58:45;;;;;;;60.20;31.23;;;29.10;99.90;;;;;;5035203;28;20030;-69
2022/01/17 03:01:17;;;;;;;79.72;42.17;;;29.30;99.90;;;;;;5034945;28;20472;-71
2022/01/17 03:03:45;;;;;;;55.47;32.20;;;29.40;99.90;;;;;;5034184;28;20507;-70
2022/01/17 03:06:13;;;;;;;50.40;28.98;;;29.30;99.90;;;;;;5015319;28;20446;-71
2022/01/17 03:08:42;;;;;;;50.72;28.25;;;29.30;99.90;;;;;;5018337;28;20030;-71
2022/01/17 03:11:12;;;;;;;43.03;21.65;;;29.30;99.90;;;;;;5033126;28;20060;-71
2022/01/17 03:13:39;;;;;;;90.30;61.15;;;29.40;99.90;;;;;;5033629;28;20071;-72
2022/01/17 03:16:16;;;;;;;51.65;31.33;;;29.60;99.90;;;;;;5034297;28;20384;-72
2022/01/17 03:18:46;;;;;;;62.97;38.38;;;29.70;99.90;;;;;;5034104;28;20049;-72
2022/01/17 03:21:16;;;;;;;55.22;33.05;;;29.80;99.90;;;;;;5033668;28;20029;-71
2022/01/17 03:23:44;;;;;;;141.13;93.32;;;29.90;99.90;;;;;;5032777;28;20040;-72
2022/01/17 03:26:12;;;;;;;47.83;29.05;;;29.90;99.90;;;;;;5034553;28;20452;-71
2022/01/17 03:28:40;;;;;;;71.60;40.50;;;29.90;99.90;;;;;;5032490;28;20538;-71
2022/01/17 03:31:08;;;;;;;52.97;33.60;;;29.80;99.90;;;;;;5034627;28;20030;-70
2022/01/17 03:33:35;;;;;;;44.70;24.50;;;29.90;99.90;;;;;;5034861;28;20026;-71
2022/01/17 03:36:01;;;;;;;34.30;20.92;;;29.90;99.90;;;;;;5033784;28;20025;-70
2022/01/17 03:38:31;;;;;;;31.90;17.17;;;29.90;99.90;;;;;;5033958;28;20030;-69
2022/01/17 03:40:59;;;;;;;32.83;16.10;;;30.00;99.90;;;;;;5030608;28;20029;-70
2022/01/17 03:43:27;;;;;;;29.35;14.32;;;30.10;99.90;;;;;;5033948;28;20116;-69
2022/01/17 03:45:57;;;;;;;28.38;15.85;;;30.40;99.90;;;;;;5033006;28;20038;-70
2022/01/17 03:48:24;;;;;;;31.00;14.68;;;30.60;99.90;;;;;;5029949;28;20423;-70
2022/01/17 03:50:51;;;;;;;36.53;19.95;;;30.50;99.90;;;;;;5030519;28;20021;-70
2022/01/17 03:53:18;;;;;;;71.80;43.67;;;30.40;99.90;;;;;;5032348;28;20029;-71
2022/01/17 03:55:45;;;;;;;37.88;21.13;;;30.40;99.90;;;;;;5031422;28;20033;-70
2022/01/17 03:58:12;;;;;;;49.67;28.83;;;30.40;99.90;;;;;;5032522;28;20031;-70
2022/01/17 04:00:46;;;;;;;41.05;24.63;;;30.30;99.90;;;;;;5032673;28;20681;-70
2022/01/17 04:03:14;;;;;;;37.42;21.90;;;30.20;99.90;;;;;;5032775;28;20057;-70
2022/01/17 04:05:41;;;;;;;42.08;24.77;;;30.10;99.90;;;;;;5032076;28;20032;-70
2022/01/17 04:08:08;;;;;;;46.00;24.45;;;30.00;99.90;;;;;;5033716;28;20064;-70
2022/01/17 04:10:36;;;;;;;49.05;30.70;;;30.00;99.90;;;;;;5033509;28;20029;-69
2022/01/17 04:13:04;;;;;;;51.10;27.40;;;30.00;99.90;;;;;;5033921;28;20064;-71
2022/01/17 04:15:35;;;;;;;72.95;48.50;;;30.00;99.90;;;;;;5033832;28;20037;-69
2022/01/17 04:18:08;;;;;;;46.05;26.83;;;30.10;99.90;;;;;;5032976;28;20061;-71
2022/01/17 04:20:36;;;;;;;36.15;16.90;;;30.30;99.90;;;;;;5033427;28;20053;-70
2022/01/17 04:23:07;;;;;;;29.15;17.02;;;30.60;99.90;;;;;;5033584;28;20061;-71
2022/01/17 04:25:36;;;;;;;26.63;14.63;;;30.70;99.90;;;;;;5032943;28;20475;-70
2022/01/17 04:28:05;;;;;;;24.23;16.35;;;30.80;99.90;;;;;;5032472;28;20029;-71
2022/01/17 04:30:32;;;;;;;28.00;16.80;;;30.90;99.90;;;;;;5029536;28;20423;-71
2022/01/17 04:32:59;;;;;;;31.45;18.75;;;30.90;99.90;;;;;;5031584;28;20056;-70
2022/01/17 04:35:28;;;;;;;36.95;20.73;;;30.90;99.90;;;;;;5030870;28;20430;-71
2022/01/17 04:38:00;;;;;;;36.97;21.27;;;31.00;99.90;;;;;;5033034;28;20021;-73
2022/01/17 04:40:39;;;;;;;30.85;17.48;;;31.00;99.90;;;;;;5032222;28;20026;-69
2022/01/17 04:45:54;;;;;;;37.15;22.20;;;31.00;99.90;;;;;;5031140;28;20037;-72
2022/01/17 04:48:21;;;;;;;35.05;19.92;;;30.90;99.90;;;;;;5031823;28;20028;-71
2022/01/17 04:50:48;;;;;;;30.63;15.98;;;31.00;99.90;;;;;;5028944;28;20100;-75
2022/01/17 04:53:17;;;;;;;27.95;16.10;;;30.90;99.90;;;;;;5032069;28;20029;-72
2022/01/17 04:55:44;;;;;;;34.80;17.02;;;30.80;99.90;;;;;;5032252;28;20025;-73
2022/01/17 04:58:12;;;;;;;30.08;19.83;;;31.00;99.90;;;;;;5032893;28;20021;-73
2022/01/17 05:00:45;;;;;;;32.38;19.70;;;31.10;99.90;;;;;;5032415;28;20049;-69
2022/01/17 05:03:17;;;;;;;38.38;16.92;;;31.20;99.30;;;;;;5032672;28;20325;-69
2022/01/17 05:05:45;;;;;;;28.88;18.45;;;31.20;99.20;;;;;;5030536;28;20033;-69
2022/01/17 05:08:12;;;;;;;32.78;20.73;;;31.20;98.50;;;;;;5031212;28;20034;-69
2022/01/17 05:10:39;;;;;;;51.53;25.30;;;31.30;99.00;;;;;;5032188;28;20084;-71
2022/01/17 05:13:06;;;;;;;46.90;20.17;;;31.40;99.80;;;;;;5031613;28;20025;-69
2022/01/17 05:15:36;;;;;;;31.42;15.93;;;31.30;98.60;;;;;;5032116;28;20024;-70
2022/01/17 05:18:25;;;;;;;28.92;17.98;;;31.40;98.70;;;;;;5032141;28;20028;-70
2022/01/17 05:20:51;;;;;;;31.40;15.55;;;31.70;96.50;;;;;;5031687;28;20541;-69
2022/01/17 05:23:18;;;;;;;24.92;14.88;;;31.70;96.50;;;;;;5032031;28;20507;-68
2022/01/17 05:25:44;;;;;;;21.13;14.23;;;31.80;95.60;;;;;;5031655;28;20029;-68
2022/01/17 05:28:11;;;;;;;32.15;16.83;;;32.00;94.20;;;;;;5032129;28;20030;-66
2022/01/17 05:30:38;;;;;;;29.33;15.75;;;32.00;95.50;;;;;;5030880;28;20060;-70
2022/01/17 05:33:04;;;;;;;26.02;14.48;;;32.10;95.20;;;;;;5032659;28;20098;-69
2022/01/17 05:35:31;;;;;;;27.08;13.00;;;32.00;94.50;;;;;;5032815;28;20037;-68
2022/01/17 05:37:58;;;;;;;25.30;15.32;;;31.90;94.40;;;;;;5032719;28;20021;-67
2022/01/17 05:40:25;;;;;;;25.00;12.38;;;31.90;94.30;;;;;;5032785;28;20567;-69
2022/01/17 05:42:52;;;;;;;24.70;12.77;;;32.00;93.90;;;;;;5032609;28;20021;-69
2022/01/17 05:45:21;;;;;;;28.13;13.52;;;32.00;93.50;;;;;;5032569;28;20144;-68
2022/01/17 05:47:48;;;;;;;30.92;15.48;;;32.00;93.30;;;;;;5033098;28;20587;-70
2022/01/17 05:50:16;;;;;;;57.38;37.53;;;32.00;93.50;;;;;;5032258;28;20057;-69
2022/01/17 05:52:44;;;;;;;46.80;25.83;;;31.90;93.70;;;;;;5032501;28;20068;-69
2022/01/17 05:55:13;;;;;;;29.45;17.08;;;31.90;93.80;;;;;;5032391;28;20065;-68
2022/01/17 05:57:40;;;;;;;44.03;25.23;;;31.90;93.10;;;;;;5032695;28;20091;-68
2022/01/17 06:00:11;;;;;;;57.03;32.08;;;31.90;93.60;;;;;;5031663;28;20022;-68
2022/01/17 06:02:38;;;;;;;48.47;28.35;;;31.90;93.60;;;;;;5031461;28;20102;-69
2022/01/17 06:05:05;;;;;;;32.75;15.88;;;31.80;93.60;;;;;;5028372;28;20430;-73
2022/01/17 06:07:32;;;;;;;29.52;13.60;;;31.80;94.20;;;;;;5030980;28;20099;-71
2022/01/17 06:09:58;;;;;;;20.98;12.65;;;31.60;94.50;;;;;;5031944;28;20025;-69
2022/01/17 06:12:25;;;;;;;23.33;13.20;;;31.50;94.70;;;;;;5031892;28;20049;-70
2022/01/17 06:14:52;;;;;;;19.52;12.75;;;31.40;95.80;;;;;;5031233;28;20543;-70
2022/01/17 06:17:18;;;;;;;24.10;15.40;;;31.30;96.30;;;;;;5031639;28;20376;-70
2022/01/17 06:19:45;;;;;;;101.00;66.18;;;31.30;95.90;;;;;;5031344;28;20033;-69
2022/01/17 06:22:12;;;;;;;40.58;27.85;;;31.20;94.60;;;;;;5035191;28;20041;-70
2022/01/17 06:24:39;;;;;;;48.92;33.90;;;31.20;94.70;;;;;;5034022;28;20033;-71
2022/01/17 06:27:05;;;;;;;30.38;20.98;;;31.10;94.80;;;;;;5030813;28;20013;-70
2022/01/17 06:29:32;;;;;;;31.00;23.30;;;31.00;95.50;;;;;;5035021;28;20022;-69
2022/01/17 06:31:59;;;;;;;28.88;15.95;;;30.90;96.00;;;;;;5034194;28;20109;-71
2022/01/17 06:34:26;;;;;;;17.88;9.95;;;30.70;96.60;;;;;;5032205;28;20052;-67
2022/01/17 06:36:52;;;;;;;18.85;8.98;;;30.40;96.90;;;;;;5035712;28;20022;-69
2022/01/17 06:39:19;;;;;;;14.52;6.82;;;30.10;96.30;;;;;;5034379;28;20365;-72
2022/01/17 06:41:46;;;;;;;11.40;7.38;;;29.90;96.60;;;;;;5033965;28;20539;-72
2022/01/17 06:44:12;;;;;;;14.73;8.18;;;29.90;97.60;;;;;;5034844;28;20056;-71
2022/01/17 06:46:39;;;;;;;19.38;10.40;;;29.80;96.90;;;;;;5033625;28;20052;-71
2022/01/17 06:49:06;;;;;;;227.85;204.23;;;29.80;96.20;;;;;;5034490;28;20095;-71
2022/01/17 06:51:33;;;;;;;49.40;32.28;;;29.80;97.60;;;;;;5034694;28;20471;-69
2022/01/17 06:53:59;;;;;;;72.75;54.08;;;29.50;99.90;;;;;;5034540;28;20029;-72
2022/01/17 06:56:26;;;;;;;53.53;39.90;;;29.10;99.90;;;;;;5035172;28;20113;-71
2022/01/17 06:58:53;;;;;;;134.10;52.45;;;28.70;99.90;;;;;;5034644;28;20029;-70
2022/01/17 07:01:21;;;;;;;96.78;31.42;;;27.90;99.90;;;;;;5034803;28;20488;-72
2022/01/17 07:03:50;;;;;;;48.17;29.15;;;27.00;99.90;;;;;;5034651;28;20124;-72
2022/01/17 07:06:17;;;;;;;62.08;38.45;;;26.80;99.90;;;;;;5034674;28;20432;-72
2022/01/17 08:24:08;;;;;;;28.02;21.83;;;25.50;99.90;;;;;;5130910;27;20964;-72
2022/01/17 08:26:42;;;;;;;51.13;34.38;;;25.50;99.90;;;;;;5114619;28;20376;-70
2022/01/17 08:29:10;;;;;;;49.63;33.17;;;25.50;99.90;;;;;;5103063;28;20027;-71
2022/01/17 08:31:37;;;;;;;45.38;32.03;;;25.60;99.90;;;;;;5096865;28;20046;-69
2022/01/17 08:34:04;;;;;;;39.97;32.88;;;25.60;99.90;;;;;;5127844;28;20051;-70
2022/01/17 08:36:31;;;;;;;53.45;38.67;;;25.70;99.90;;;;;;5126128;28;20535;-70
2022/01/17 08:38:58;;;;;;;61.03;46.58;;;25.90;99.90;;;;;;5111199;28;20024;-69
2022/01/17 08:41:24;;;;;;;131.52;99.28;;;25.90;99.90;;;;;;5122747;28;20027;-70
2022/01/17 08:43:51;;;;;;;87.88;69.30;;;26.10;99.90;;;;;;5142175;27;20038;-70
2022/01/17 08:46:19;;;;;;;68.97;55.85;;;26.10;99.90;;;;;;5138269;27;20068;-72
2022/01/17 08:48:45;;;;;;;73.85;56.55;;;26.10;99.90;;;;;;5110568;28;20527;-70
2022/01/17 08:51:12;;;;;;;68.85;54.28;;;26.00;99.90;;;;;;5110747;28;20031;-69
2022/01/17 08:53:39;;;;;;;75.20;57.88;;;25.90;99.90;;;;;;5122333;28;20046;-71
2022/01/17 08:56:06;;;;;;;62.15;51.58;;;25.90;99.90;;;;;;5110487;28;20024;-70
2022/01/17 08:58:33;;;;;;;67.63;52.30;;;25.90;99.90;;;;;;5141679;27;20038;-75
2022/01/17 09:01:00;;;;;;;65.30;50.25;;;26.00;99.90;;;;;;5151410;27;20027;-74
2022/01/17 09:03:26;;;;;;;45.53;35.65;;;25.90;99.90;;;;;;5124653;28;20071;-71
2022/01/17 09:05:53;;;;;;;43.15;30.30;;;25.80;99.90;;;;;;5117851;28;20027;-70
2022/01/17 09:08:21;;;;;;;36.50;27.90;;;25.80;99.90;;;;;;5110263;28;20472;-72
2022/01/17 09:10:49;;;;;;;35.97;25.58;;;25.90;99.90;;;;;;5128822;28;20527;-71
2022/01/17 09:13:17;;;;;;;39.47;26.15;;;25.90;99.90;;;;;;5132810;27;20108;-72
2022/01/17 09:15:45;;;;;;;30.90;23.40;;;26.00;99.90;;;;;;5127923;28;20023;-72
2022/01/17 09:18:14;;;;;;;31.15;23.48;;;26.00;99.90;;;;;;5130558;28;20022;-73
2022/01/17 09:20:41;;;;;;;26.90;20.58;;;26.00;99.90;;;;;;5131765;27;20023;-70
2022/01/17 09:23:08;;;;;;;27.75;21.15;;;26.00;99.90;;;;;;5130280;28;20048;-72
2022/01/17 09:25:35;;;;;;;15.20;13.05;;;25.90;99.90;;;;;;5125441;28;20085;-71
2022/01/17 09:28:01;;;;;;;16.67;11.73;;;25.90;99.90;;;;;;5114685;28;20381;-73
2022/01/17 09:30:28;;;;;;;17.30;13.20;;;25.80;99.90;;;;;;5123398;27;20103;-71
2022/01/17 09:32:55;;;;;;;15.70;11.52;;;25.80;99.90;;;;;;5128294;27;20114;-69
2022/01/17 09:35:22;;;;;;;9.25;8.05;;;25.90;99.90;;;;;;5116985;27;20015;-72
2022/01/17 09:37:50;;;;;;;9.98;7.15;;;25.80;99.90;;;;;;5125635;27;20019;-75
2022/01/17 09:40:19;;;;;;;21.13;7.93;;;25.80;99.90;;;;;;5137133;27;20019;-73
2022/01/17 09:42:46;;;;;;;11.27;9.75;;;25.80;99.90;;;;;;5127443;27;20027;-73
2022/01/17 09:45:17;;;;;;;13.25;10.13;;;25.80;99.90;;;;;;5116433;28;20027;-73
2022/01/17 09:47:47;;;;;;;14.00;11.85;;;25.80;99.90;;;;;;5124769;27;20502;-72
2022/01/17 09:50:19;;;;;;;19.75;13.40;;;25.80;99.90;;;;;;5128995;27;20035;-69
2022/01/17 09:52:50;;;;;;;24.00;14.20;;;25.90;99.90;;;;;;5096000;28;20376;-69
2022/01/17 09:55:23;;;;;;;110.43;83.93;;;25.80;99.90;;;;;;5096015;28;20070;-73
2022/01/17 09:57:55;;;;;;;24.08;18.67;;;25.80;99.90;;;;;;5095885;28;20020;-72
2022/01/17 10:00:28;;;;;;;20.02;13.48;;;25.70;99.90;;;;;;5103054;27;20400;-74
2022/01/17 10:02:56;;;;;;;;;;;25.70;99.90;;;;;;5132468;27;20035;-72
2022/01/17 10:05:24;;;;;;;19.08;14.13;;;25.60;99.90;;;;;;5135513;27;20415;-72
2022/01/17 10:08:04;;;;;;;16.17;12.32;;;25.60;99.90;;;;;;5118350;27;20027;-72
2022/01/17 10:10:57;;;;;;;20.85;13.45;;;25.50;99.90;;;;;;5116190;28;20015;-72
2022/01/17 10:13:34;;;;;;;22.65;13.45;;;25.50;99.90;;;;;;5116524;28;20023;-73
2022/01/17 10:16:19;;;;;;;25.13;13.75;;;25.50;99.90;;;;;;5115727;28;20032;-71
2022/01/17 10:19:01;;;;;;;23.95;13.70;;;25.60;99.90;;;;;;5114659;27;20031;-73
2022/01/17 10:21:34;;;;;;;21.48;12.93;;;25.60;99.90;;;;;;5133847;27;20057;-71
2022/01/17 10:24:11;;;;;;;19.83;13.65;;;25.60;99.90;;;;;;5125369;27;20035;-70
2022/01/17 10:27:05;;;;;;;44.00;32.22;;;25.60;99.90;;;;;;5136274;27;20034;-67
2022/01/17 10:29:54;;;;;;;57.30;40.03;;;25.60;99.90;;;;;;5135849;27;20110;-69
2022/01/17 10:35:18;;;;;;;67.07;50.70;;;25.80;99.90;;;;;;5089614;28;20396;-69
2022/01/17 10:38:06;;;;;;;36.65;20.92;;;25.90;99.90;;;;;;5095410;28;20506;-69
2022/01/17 10:40:42;;;;;;;36.05;22.23;;;25.80;99.90;;;;;;5082883;28;20032;-70
2022/01/17 10:43:20;;;;;;;34.08;23.70;;;25.80;99.90;;;;;;5086699;28;20066;-71
2022/01/17 10:45:47;;;;;;;40.53;28.58;;;25.80;99.90;;;;;;5074427;28;20103;-70
2022/01/17 10:48:14;;;;;;;27.95;18.52;;;25.90;99.90;;;;;;5074947;28;20028;-70
2022/01/17 10:50:44;;;;;;;20.10;13.27;;;25.80;99.90;;;;;;5074372;28;20017;-69
2022/01/17 10:53:16;;;;;;;24.15;14.73;;;25.90;99.90;;;;;;5076237;28;20504;-68
2022/01/17 10:55:48;;;;;;;21.63;12.77;;;25.80;99.90;;;;;;5090627;28;20032;-68
2022/01/17 10:58:21;;;;;;;22.85;13.15;;;25.90;99.90;;;;;;5058868;28;20033;-69
2022/01/17 11:00:54;;;;;;;24.30;15.00;;;26.00;99.90;;;;;;5078470;28;20393;-71
2022/01/17 11:03:25;;;;;;;23.17;14.30;;;26.00;99.90;;;;;;5074804;28;20079;-69
2022/01/17 11:05:54;;;;;;;23.40;14.35;;;26.00;99.90;;;;;;5073572;28;20103;-69
2022/01/17 11:08:24;;;;;;;27.48;17.67;;;26.10;99.90;;;;;;5074708;28;20472;-72
2022/01/17 11:10:54;;;;;;;30.60;20.60;;;26.00;99.90;;;;;;5057677;28;20028;-71
2022/01/17 11:13:23;;;;;;;30.70;20.05;;;25.90;99.90;;;;;;5074361;28;20024;-70
2022/01/17 11:16:00;;;;;;;27.25;19.65;;;25.80;99.90;;;;;;5074529;28;20041;-75
2022/01/17 11:18:29;;;;;;;25.92;19.00;;;25.90;99.90;;;;;;5074378;28;20048;-72
2022/01/17 11:20:57;;;;;;;30.38;22.10;;;25.90;99.90;;;;;;5070300;28;20035;-71
2022/01/17 11:23:25;;;;;;;28.33;19.63;;;25.90;99.90;;;;;;5074005;28;20032;-70
2022/01/17 11:25:55;;;;;;;73.88;53.65;;;25.90;99.90;;;;;;5074114;28;20107;-69
2022/01/17 11:28:25;;;;;;;49.00;34.80;;;25.90;99.90;;;;;;5068769;28;20021;-71
2022/01/17 11:30:56;;;;;;;33.30;21.80;;;26.00;99.90;;;;;;5072829;28;20032;-69
2022/01/17 11:33:23;;;;;;;66.60;45.53;;;26.00;99.90;;;;;;5074971;28;20048;-70
2022/01/17 11:35:52;;;;;;;98.57;66.32;;;26.00;99.90;;;;;;5068016;28;20036;-71
2022/01/17 11:38:25;;;;;;;61.00;41.95;;;26.00;99.90;;;;;;5054867;28;20470;-73
2022/01/17 11:40:53;;;;;;;100.88;71.60;;;26.00;99.90;;;;;;5054227;28;20025;-72
2022/01/17 11:43:35;;;;;;;114.30;75.65;;;26.00;99.90;;;;;;5064479;28;20099;-69
2022/01/17 11:46:19;;;;;;;52.15;33.30;;;26.10;99.90;;;;;;5073477;28;20024;-70
2022/01/17 11:48:59;;;;;;;54.33;32.83;;;26.10;99.90;;;;;;5069264;28;20280;-71
2022/01/17 11:51:39;;;;;;;43.05;30.40;;;26.10;99.90;;;;;;5073649;28;20044;-70
2022/01/17 11:54:12;;;;;;;68.50;43.80;;;26.10;99.90;;;;;;5066371;28;20024;-68
2022/01/17 11:56:46;;;;;;;34.65;24.77;;;26.00;99.90;;;;;;5063747;28;20016;-68
2022/01/17 11:59:39;;;;;;;27.60;21.88;;;26.10;99.90;;;;;;5068996;28;20060;-71
2022/01/17 12:02:24;;;;;;;116.68;86.43;;;26.00;99.90;;;;;;5066101;28;20531;-69
2022/01/17 12:05:22;;;;;;;40.38;28.45;;;26.00;99.90;;;;;;5050968;28;20036;-69
2022/01/17 12:07:55;;;;;;;169.63;129.98;;;26.00;99.90;;;;;;5071035;28;20012;-69
2022/01/17 12:10:25;;;;;;;47.10;33.80;;;25.90;99.90;;;;;;5066681;28;20388;-71
2022/01/17 12:13:24;;;;;;;126.97;89.25;;;25.90;99.90;;;;;;5050215;28;20472;-69
2022/01/17 12:16:17;;;;;;;37.50;25.10;;;26.00;99.90;;;;;;5066278;28;20040;-69
2022/01/17 12:18:59;;;;;;;36.20;23.50;;;26.00;99.90;;;;;;5071300;28;20475;-70
2022/01/17 12:21:41;;;;;;;33.00;24.13;;;26.00;99.90;;;;;;5068481;28;20040;-70
2022/01/17 12:24:25;;;;;;;34.97;23.33;;;26.00;99.90;;;;;;5035651;28;20430;-69
2022/01/17 12:27:08;;;;;;;36.60;27.77;;;25.80;99.90;;;;;;5061367;28;20090;-68
2022/01/17 12:29:47;;;;;;;34.03;25.60;;;25.80;99.90;;;;;;5073157;28;20044;-67
2022/01/17 12:32:25;;;;;;;37.60;29.35;;;25.80;99.90;;;;;;5070242;28;20048;-69
2022/01/17 12:34:56;;;;;;;40.20;28.63;;;25.80;99.90;;;;;;5074192;28;20021;-69
2022/01/17 12:37:40;;;;;;;36.30;28.33;;;25.80;99.90;;;;;;5070682;28;20039;-71
2022/01/17 12:40:14;;;;;;;46.50;32.22;;;25.80;99.90;;;;;;5072837;28;20024;-70
2022/01/17 12:42:51;;;;;;;43.58;31.20;;;25.90;99.90;;;;;;5071025;28;20508;-68
2022/01/17 12:45:22;;;;;;;41.78;29.42;;;25.80;99.90;;;;;;5072624;28;20024;-69
2022/01/17 12:47:50;;;;;;;40.75;31.00;;;25.80;99.90;;;;;;5068926;28;20492;-69
2022/01/17 12:50:17;;;;;;;40.28;32.28;;;25.80;99.90;;;;;;5071980;28;20162;-69
2022/01/17 12:52:44;;;;;;;53.28;37.50;;;25.80;99.90;;;;;;5071423;28;20024;-70
2022/01/17 12:55:12;;;;;;;52.83;40.22;;;25.80;99.90;;;;;;5073389;28;20099;-69
2022/01/17 12:57:45;;;;;;;47.92;38.63;;;25.90;99.90;;;;;;5070258;28;22746;-68
2022/01/17 13:00:20;;;;;;;54.58;39.95;;;26.00;99.90;;;;;;5073007;28;20029;-71
2022/01/17 13:02:52;;;;;;;48.38;40.13;;;26.00;99.90;;;;;;5069481;28;20531;-72
2022/01/17 13:05:28;;;;;;;50.95;38.00;;;26.00;99.90;;;;;;5072787;28;20021;-70
2022/01/17 13:07:55;;;;;;;57.67;41.47;;;26.10;99.90;;;;;;5079870;28;20037;-70
2022/01/17 13:10:22;;;;;;;59.05;41.85;;;26.10;99.90;;;;;;5075474;28;20028;-70
2022/01/17 13:12:51;;;;;;;60.45;40.15;;;26.10;99.90;;;;;;5076661;28;20029;-70
2022/01/17 13:15:18;;;;;;;146.77;101.65;;;26.10;99.90;;;;;;5072632;28;20024;-71
2022/01/17 13:17:48;;;;;;;145.50;105.45;;;26.10;99.90;;;;;;5076547;28;20048;-71
2022/01/17 13:22:37;;;;;;;81.45;60.80;;;26.00;99.90;;;;;;5091446;27;21066;-69
2022/01/17 13:25:05;;;;;;;93.10;70.53;;;26.00;99.90;;;;;;5083793;28;20718;-70
2022/01/17 13:27:33;;;;;;;88.10;69.10;;;25.90;99.90;;;;;;5090377;28;20032;-69
2022/01/17 13:30:07;;;;;;;86.45;61.15;;;25.80;99.90;;;;;;5087208;28;20066;-70
2022/01/17 13:32:36;;;;;;;75.18;56.30;;;25.80;99.90;;;;;;5090786;28;20060;-69
2022/01/17 13:35:09;;;;;;;79.80;57.13;;;25.90;99.90;;;;;;5086063;28;20021;-68
2022/01/17 13:37:37;;;;;;;76.07;56.60;;;25.80;99.90;;;;;;5087918;28;20024;-68
2022/01/17 13:40:19;;;;;;;80.78;57.65;;;26.00;99.90;;;;;;5086310;28;20024;-68
2022/01/17 13:42:54;;;;;;;;;;;26.00;99.90;;;;;;5086451;28;20518;-68
2022/01/17 13:45:48;;;;;;;90.50;66.60;;;26.10;99.90;;;;;;5080847;28;20403;-68
2022/01/17 13:48:21;;;;;;;99.90;75.80;;;26.10;99.90;;;;;;5080541;28;20029;-69
2022/01/17 13:51:02;;;;;;;89.38;69.10;;;26.10;99.90;;;;;;5078598;28;20029;-68
2022/01/17 13:53:31;;;;;;;90.22;69.13;;;26.00;99.90;;;;;;5079221;28;20030;-70
2022/01/17 13:56:03;;;;;;;110.03;79.25;;;25.90;99.90;;;;;;5080806;28;20112;-69
2022/01/17 13:58:35;;;;;;;106.70;80.30;;;25.90;99.90;;;;;;5090536;28;20107;-71
2022/01/17 14:01:08;;;;;;;121.13;84.80;;;26.00;99.90;;;;;;5075401;28;20024;-69
2022/01/17 14:03:35;;;;;;;119.30;89.53;;;25.90;99.90;;;;;;5069881;28;20020;-69
2022/01/17 14:06:10;;;;;;;115.22;88.13;;;26.10;99.90;;;;;;5074032;28;20472;-68
2022/01/17 14:08:45;;;;;;;137.23;85.93;;;26.00;99.90;;;;;;5079494;28;20126;-67
2022/01/17 14:11:15;;;;;;;121.30;86.38;;;25.90;99.90;;;;;;5070256;28;20039;-67
2022/01/17 14:13:49;;;;;;;111.28;82.45;;;25.80;99.90;;;;;;5070185;28;20044;-67